sensor_id;sensor_type;location;lat;lon;timestamp;pressure;altitude;pressure_sealevel;temperature;humidity
8294;BME280;4185;41.506;24.938;2022-07-06T00:00:06;93561.47;;;17.97;76.63
8294;BME280;4185;41.506;24.938;2022-07-06T00:02:33;93561.91;;;17.88;76.80
8294;BME280;4185;41.506;24.938;2022-07-06T00:05:00;93559.63;;;17.79;77.52
8294;BME280;4185;41.506;24.938;2022-07-06T00:07:28;93568.03;;;17.81;77.70
8294;BME280;4185;41.506;24.938;2022-07-06T00:09:55;93576.75;;;17.72;77.36
8294;BME280;4185;41.506;24.938;2022-07-06T00:12:23;93577.38;;;17.65;77.32
8294;BME280;4185;41.506;24.938;2022-07-06T00:14:50;93575.69;;;17.62;77.60
8294;BME280;4185;41.506;24.938;2022-07-06T00:17:17;93571.13;;;17.64;77.61
8294;BME280;4185;41.506;24.938;2022-07-06T00:19:44;93566.81;;;17.69;76.85
8294;BME280;4185;41.506;24.938;2022-07-06T00:22:10;93558.66;;;17.76;77.10
8294;BME280;4185;41.506;24.938;2022-07-06T00:24:39;93562.03;;;17.69;77.54
8294;BME280;4185;41.506;24.938;2022-07-06T00:27:05;93549.59;;;17.55;78.58
8294;BME280;4185;41.506;24.938;2022-07-06T00:29:32;93550.03;;;17.46;79.04
8294;BME280;4185;41.506;24.938;2022-07-06T00:31:59;93549.28;;;17.46;79.38
8294;BME280;4185;41.506;24.938;2022-07-06T00:34:26;93546.97;;;17.50;78.91
8294;BME280;4185;41.506;24.938;2022-07-06T00:36:53;93540.09;;;17.56;78.91
8294;BME280;4185;41.506;24.938;2022-07-06T00:39:20;93537.78;;;17.60;78.63
8294;BME280;4185;41.506;24.938;2022-07-06T00:41:48;93533.09;;;17.68;77.99
8294;BME280;4185;41.506;24.938;2022-07-06T00:44:15;93533.19;;;17.76;78.10
8294;BME280;4185;41.506;24.938;2022-07-06T00:46:42;93532.75;;;17.85;77.83
8294;BME280;4185;41.506;24.938;2022-07-06T00:49:09;93527.16;;;17.90;78.02
8294;BME280;4185;41.506;24.938;2022-07-06T00:51:56;93523.13;;;17.91;77.96
8294;BME280;4185;41.506;24.938;2022-07-06T00:54:24;93527.91;;;17.91;78.19
8294;BME280;4185;41.506;24.938;2022-07-06T00:56:53;93506.66;;;17.78;78.31
8294;BME280;4185;41.506;24.938;2022-07-06T00:59:20;93497.78;;;17.85;78.34
8294;BME280;4185;41.506;24.938;2022-07-06T01:01:47;93487.53;;;17.73;78.94
8294;BME280;4185;41.506;24.938;2022-07-06T01:04:13;93497.94;;;17.54;79.30
8294;BME280;4185;41.506;24.938;2022-07-06T01:06:40;93487.78;;;17.49;80.58
8294;BME280;4185;41.506;24.938;2022-07-06T01:09:07;93486.53;;;17.50;81.03
8294;BME280;4185;41.506;24.938;2022-07-06T01:11:34;93489.16;;;17.42;81.72
8294;BME280;4185;41.506;24.938;2022-07-06T01:14:02;93497.19;;;17.40;81.74
8294;BME280;4185;41.506;24.938;2022-07-06T01:16:30;93485.56;;;17.47;82.07
8294;BME280;4185;41.506;24.938;2022-07-06T01:18:57;93495.22;;;17.54;81.98
8294;BME280;4185;41.506;24.938;2022-07-06T01:21:25;93488.00;;;17.64;81.83
8294;BME280;4185;41.506;24.938;2022-07-06T01:23:52;93468.97;;;17.66;81.61
8294;BME280;4185;41.506;24.938;2022-07-06T01:26:20;93473.00;;;17.65;81.29
8294;BME280;4185;41.506;24.938;2022-07-06T01:28:49;93476.06;;;17.61;81.47
8294;BME280;4185;41.506;24.938;2022-07-06T01:31:18;93478.47;;;17.65;81.40
8294;BME280;4185;41.506;24.938;2022-07-06T01:33:46;93472.03;;;17.62;81.24
8294;BME280;4185;41.506;24.938;2022-07-06T01:36:12;93467.06;;;17.61;81.60
8294;BME280;4185;41.506;24.938;2022-07-06T01:38:48;93473.00;;;17.65;81.29
8294;BME280;4185;41.506;24.938;2022-07-06T01:41:15;93465.59;;;17.60;81.25
8294;BME280;4185;41.506;24.938;2022-07-06T01:43:42;93464.47;;;17.55;81.61
8294;BME280;4185;41.506;24.938;2022-07-06T01:46:10;93457.47;;;17.54;82.04
8294;BME280;4185;41.506;24.938;2022-07-06T01:48:37;93456.75;;;17.54;82.77
8294;BME280;4185;41.506;24.938;2022-07-06T01:51:04;93452.63;;;17.47;83.25
8294;BME280;4185;41.506;24.938;2022-07-06T01:53:31;93449.56;;;17.38;83.49
8294;BME280;4185;41.506;24.938;2022-07-06T01:55:59;93447.44;;;17.31;83.71
8294;BME280;4185;41.506;24.938;2022-07-06T01:58:26;93449.59;;;17.25;83.65
8294;BME280;4185;41.506;24.938;2022-07-06T02:00:53;93447.38;;;17.23;83.37
8294;BME280;4185;41.506;24.938;2022-07-06T02:03:20;93437.75;;;17.30;83.91
8294;BME280;4185;41.506;24.938;2022-07-06T02:05:47;93421.78;;;17.41;82.68
8294;BME280;4185;41.506;24.938;2022-07-06T02:08:14;93415.75;;;17.43;82.90
8294;BME280;4185;41.506;24.938;2022-07-06T02:10:41;93422.53;;;17.42;82.55
8294;BME280;4185;41.506;24.938;2022-07-06T02:13:09;93423.06;;;17.40;82.37
8294;BME280;4185;41.506;24.938;2022-07-06T02:15:36;93418.97;;;17.47;82.17
8294;BME280;4185;41.506;24.938;2022-07-06T02:18:03;93402.88;;;17.51;81.04
8294;BME280;4185;41.506;24.938;2022-07-06T02:20:30;93405.22;;;17.47;81.06
8294;BME280;4185;41.506;24.938;2022-07-06T02:22:56;93413.66;;;17.49;81.36
8294;BME280;4185;41.506;24.938;2022-07-06T02:25:24;93408.78;;;17.55;81.14
8294;BME280;4185;41.506;24.938;2022-07-06T02:27:50;93411.09;;;17.51;81.33
8294;BME280;4185;41.506;24.938;2022-07-06T02:30:19;93403.94;;;17.48;79.80
8294;BME280;4185;41.506;24.938;2022-07-06T02:32:46;93398.00;;;17.44;80.47
8294;BME280;4185;41.506;24.938;2022-07-06T02:35:13;93403.09;;;17.40;81.21
8294;BME280;4185;41.506;24.938;2022-07-06T02:37:40;93406.16;;;17.36;81.63
8294;BME280;4185;41.506;24.938;2022-07-06T02:40:07;93412.84;;;17.28;82.06
8294;BME280;4185;41.506;24.938;2022-07-06T02:42:35;93407.97;;;17.21;82.72
8294;BME280;4185;41.506;24.938;2022-07-06T02:45:02;93418.13;;;17.13;82.59
8294;BME280;4185;41.506;24.938;2022-07-06T02:47:30;93414.13;;;17.00;82.53
8294;BME280;4185;41.506;24.938;2022-07-06T02:49:57;93412.22;;;17.08;82.06
8294;BME280;4185;41.506;24.938;2022-07-06T02:52:24;93423.31;;;17.16;82.18
8294;BME280;4185;41.506;24.938;2022-07-06T02:54:51;93429.31;;;17.28;81.78
8294;BME280;4185;41.506;24.938;2022-07-06T02:57:18;93422.53;;;17.29;81.94
8294;BME280;4185;41.506;24.938;2022-07-06T02:59:45;93432.66;;;17.34;81.48
8294;BME280;4185;41.506;24.938;2022-07-06T03:02:15;93436.69;;;17.33;81.52
8294;BME280;4185;41.506;24.938;2022-07-06T03:04:43;93435.41;;;17.34;81.42
8294;BME280;4185;41.506;24.938;2022-07-06T03:07:10;93438.16;;;17.34;81.53
8294;BME280;4185;41.506;24.938;2022-07-06T03:09:37;93448.09;;;17.37;81.26
8294;BME280;4185;41.506;24.938;2022-07-06T03:12:04;93444.50;;;17.42;80.96
8294;BME280;4185;41.506;24.938;2022-07-06T03:14:31;93453.38;;;17.35;81.38
8294;BME280;4185;41.506;24.938;2022-07-06T03:16:58;93445.34;;;17.24;81.91
8294;BME280;4185;41.506;24.938;2022-07-06T03:19:25;93447.16;;;17.21;82.16
8294;BME280;4185;41.506;24.938;2022-07-06T03:21:53;93441.97;;;17.18;81.83
8294;BME280;4185;41.506;24.938;2022-07-06T03:24:20;93441.44;;;17.19;82.16
8294;BME280;4185;41.506;24.938;2022-07-06T03:26:47;93443.88;;;17.23;81.96
8294;BME280;4185;41.506;24.938;2022-07-06T03:29:14;93445.78;;;17.28;81.90
8294;BME280;4185;41.506;24.938;2022-07-06T03:31:40;93456.31;;;17.24;81.62
8294;BME280;4185;41.506;24.938;2022-07-06T03:34:07;93455.28;;;17.14;82.33
8294;BME280;4185;41.506;24.938;2022-07-06T03:36:34;93458.88;;;17.22;81.75
8294;BME280;4185;41.506;24.938;2022-07-06T03:39:03;93452.41;;;17.32;81.73
8294;BME280;4185;41.506;24.938;2022-07-06T03:41:30;93443.25;;;17.30;81.84
8294;BME280;4185;41.506;24.938;2022-07-06T03:43:57;93454.00;;;17.28;81.67
8294;BME280;4185;41.506;24.938;2022-07-06T03:46:24;93446.09;;;17.24;81.19
8294;BME280;4185;41.506;24.938;2022-07-06T03:48:51;93443.88;;;17.23;81.12
8294;BME280;4185;41.506;24.938;2022-07-06T03:51:18;93437.03;;;17.16;81.67
8294;BME280;4185;41.506;24.938;2022-07-06T03:53:45;93444.50;;;17.16;82.13
8294;BME280;4185;41.506;24.938;2022-07-06T03:56:13;93444.31;;;17.14;81.84
8294;BME280;4185;41.506;24.938;2022-07-06T03:58:58;93445.91;;;17.09;82.57
8294;BME280;4185;41.506;24.938;2022-07-06T04:01:25;93444.94;;;17.06;82.68
8294;BME280;4185;41.506;24.938;2022-07-06T04:03:52;93437.75;;;17.03;82.52
8294;BME280;4185;41.506;24.938;2022-07-06T04:06:19;93440.09;;;17.13;82.54
8294;BME280;4185;41.506;24.938;2022-07-06T04:08:46;93442.19;;;17.20;82.14
8294;BME280;4185;41.506;24.938;2022-07-06T04:11:14;93441.09;;;17.36;81.29
8294;BME280;4185;41.506;24.938;2022-07-06T04:13:41;93442.59;;;17.50;81.07
8294;BME280;4185;41.506;24.938;2022-07-06T04:16:08;93435.94;;;17.58;80.94
8294;BME280;4185;41.506;24.938;2022-07-06T04:18:35;93437.72;;;17.56;80.88
8294;BME280;4185;41.506;24.938;2022-07-06T04:21:02;93438.56;;;17.64;80.86
8294;BME280;4185;41.506;24.938;2022-07-06T04:23:29;93439.91;;;17.70;80.58
8294;BME280;4185;41.506;24.938;2022-07-06T04:25:56;93446.09;;;17.84;80.16
8294;BME280;4185;41.506;24.938;2022-07-06T04:28:25;93449.88;;;17.94;79.85
8294;BME280;4185;41.506;24.938;2022-07-06T04:30:52;93456.59;;;18.06;79.43
8294;BME280;4185;41.506;24.938;2022-07-06T04:33:19;93460.47;;;18.10;79.13
8294;BME280;4185;41.506;24.938;2022-07-06T04:35:46;93454.19;;;18.23;78.81
8294;BME280;4185;41.506;24.938;2022-07-06T04:38:13;93449.84;;;18.27;78.66
8294;BME280;4185;41.506;24.938;2022-07-06T04:40:39;93452.31;;;18.18;79.45
8294;BME280;4185;41.506;24.938;2022-07-06T04:43:06;93451.81;;;18.06;80.77
8294;BME280;4185;41.506;24.938;2022-07-06T04:45:34;93455.97;;;18.00;81.68
8294;BME280;4185;41.506;24.938;2022-07-06T04:48:01;93454.94;;;17.90;82.81
8294;BME280;4185;41.506;24.938;2022-07-06T04:50:28;93454.13;;;17.82;83.54
8294;BME280;4185;41.506;24.938;2022-07-06T04:52:55;93465.13;;;17.82;83.78
8294;BME280;4185;41.506;24.938;2022-07-06T04:55:22;93468.81;;;17.84;83.94
8294;BME280;4185;41.506;24.938;2022-07-06T04:57:49;93461.94;;;17.91;82.87
8294;BME280;4185;41.506;24.938;2022-07-06T05:00:17;93465.72;;;18.01;82.94
8294;BME280;4185;41.506;24.938;2022-07-06T05:02:45;93465.22;;;18.10;82.49
8294;BME280;4185;41.506;24.938;2022-07-06T05:05:12;93465.53;;;18.19;82.59
8294;BME280;4185;41.506;24.938;2022-07-06T05:07:39;93460.63;;;18.25;82.76
8294;BME280;4185;41.506;24.938;2022-07-06T05:10:08;93446.66;;;18.23;82.67
8294;BME280;4185;41.506;24.938;2022-07-06T05:12:35;93462.72;;;18.33;82.88
8294;BME280;4185;41.506;24.938;2022-07-06T05:15:03;93453.06;;;18.39;82.31
8294;BME280;4185;41.506;24.938;2022-07-06T05:17:30;93453.66;;;18.45;81.25
8294;BME280;4185;41.506;24.938;2022-07-06T05:19:59;93453.00;;;18.52;80.63
8294;BME280;4185;41.506;24.938;2022-07-06T05:22:26;93452.47;;;18.54;81.10
8294;BME280;4185;41.506;24.938;2022-07-06T05:24:53;93462.53;;;18.51;81.12
8294;BME280;4185;41.506;24.938;2022-07-06T05:27:20;93453.22;;;18.54;80.95
8294;BME280;4185;41.506;24.938;2022-07-06T05:29:47;93458.91;;;18.56;80.63
8294;BME280;4185;41.506;24.938;2022-07-06T05:32:13;93451.66;;;18.66;80.75
8294;BME280;4185;41.506;24.938;2022-07-06T05:34:40;93450.44;;;18.75;80.63
8294;BME280;4185;41.506;24.938;2022-07-06T05:37:09;93448.81;;;18.79;80.64
8294;BME280;4185;41.506;24.938;2022-07-06T05:39:35;93457.66;;;18.85;80.81
8294;BME280;4185;41.506;24.938;2022-07-06T05:42:04;93455.28;;;18.89;80.80
8294;BME280;4185;41.506;24.938;2022-07-06T05:44:31;93459.53;;;18.90;81.15
8294;BME280;4185;41.506;24.938;2022-07-06T05:46:58;93454.25;;;18.92;80.95
8294;BME280;4185;41.506;24.938;2022-07-06T05:49:38;93463.22;;;18.93;81.04
8294;BME280;4185;41.506;24.938;2022-07-06T05:52:23;93465.44;;;18.94;81.74
8294;BME280;4185;41.506;24.938;2022-07-06T05:54:50;93462.72;;;19.02;81.36
8294;BME280;4185;41.506;24.938;2022-07-06T05:57:17;93464.28;;;19.18;80.40
8294;BME280;4185;41.506;24.938;2022-07-06T05:59:44;93467.34;;;19.35;79.89
8294;BME280;4185;41.506;24.938;2022-07-06T06:02:11;93460.66;;;19.51;79.69
8294;BME280;4185;41.506;24.938;2022-07-06T06:04:38;93465.41;;;19.51;79.96
8294;BME280;4185;41.506;24.938;2022-07-06T06:07:05;93465.28;;;19.64;79.28
8294;BME280;4185;41.506;24.938;2022-07-06T06:09:33;93470.28;;;19.73;79.25
8294;BME280;4185;41.506;24.938;2022-07-06T06:12:00;93469.41;;;19.78;78.40
8294;BME280;4185;41.506;24.938;2022-07-06T06:14:27;93470.34;;;19.88;77.56
8294;BME280;4185;41.506;24.938;2022-07-06T06:16:53;93476.66;;;20.03;76.58
8294;BME280;4185;41.506;24.938;2022-07-06T06:19:20;93472.50;;;20.25;75.54
8294;BME280;4185;41.506;24.938;2022-07-06T06:21:47;93470.88;;;20.37;75.46
8294;BME280;4185;41.506;24.938;2022-07-06T06:24:14;93460.94;;;20.49;74.66
8294;BME280;4185;41.506;24.938;2022-07-06T06:26:42;93466.31;;;20.70;73.52
8294;BME280;4185;41.506;24.938;2022-07-06T06:29:09;93465.00;;;20.86;73.45
8294;BME280;4185;41.506;24.938;2022-07-06T06:31:37;93469.25;;;20.87;73.02
8294;BME280;4185;41.506;24.938;2022-07-06T06:34:03;93470.00;;;20.80;73.40
8294;BME280;4185;41.506;24.938;2022-07-06T06:36:30;93466.28;;;20.77;73.03
8294;BME280;4185;41.506;24.938;2022-07-06T06:38:59;93461.13;;;20.74;73.67
8294;BME280;4185;41.506;24.938;2022-07-06T06:41:30;93458.75;;;20.78;72.51
8294;BME280;4185;41.506;24.938;2022-07-06T06:44:01;93463.91;;;20.81;73.27
8294;BME280;4185;41.506;24.938;2022-07-06T06:46:29;93465.72;;;20.79;74.27
8294;BME280;4185;41.506;24.938;2022-07-06T06:48:56;93464.44;;;20.87;73.81
8294;BME280;4185;41.506;24.938;2022-07-06T06:51:23;93464.63;;;20.89;73.54
8294;BME280;4185;41.506;24.938;2022-07-06T06:53:50;93458.41;;;20.89;74.14
8294;BME280;4185;41.506;24.938;2022-07-06T06:56:17;93469.41;;;20.96;74.22
8294;BME280;4185;41.506;24.938;2022-07-06T06:58:44;93464.31;;;21.00;74.37
8294;BME280;4185;41.506;24.938;2022-07-06T07:01:12;93469.97;;;21.02;75.75
8294;BME280;4185;41.506;24.938;2022-07-06T07:03:39;93460.44;;;21.03;75.56
8294;BME280;4185;41.506;24.938;2022-07-06T07:06:06;93460.63;;;21.05;76.61
8294;BME280;4185;41.506;24.938;2022-07-06T07:08:33;93461.69;;;21.02;76.15
8294;BME280;4185;41.506;24.938;2022-07-06T07:11:00;93454.72;;;21.01;76.57
8294;BME280;4185;41.506;24.938;2022-07-06T07:13:27;93461.53;;;21.00;76.52
8294;BME280;4185;41.506;24.938;2022-07-06T07:15:54;93455.28;;;21.00;76.55
8294;BME280;4185;41.506;24.938;2022-07-06T07:18:22;93468.13;;;20.97;76.69
8294;BME280;4185;41.506;24.938;2022-07-06T07:20:49;93463.19;;;20.88;76.76
8294;BME280;4185;41.506;24.938;2022-07-06T07:23:16;93464.28;;;20.85;76.81
8294;BME280;4185;41.506;24.938;2022-07-06T07:25:43;93461.53;;;20.85;77.24
8294;BME280;4185;41.506;24.938;2022-07-06T07:28:09;93465.00;;;20.86;77.39
8294;BME280;4185;41.506;24.938;2022-07-06T07:30:36;93465.75;;;20.86;77.31
8294;BME280;4185;41.506;24.938;2022-07-06T07:33:03;93467.94;;;20.88;77.30
8294;BME280;4185;41.506;24.938;2022-07-06T07:35:31;93467.75;;;20.86;76.71
8294;BME280;4185;41.506;24.938;2022-07-06T07:37:58;93466.84;;;20.91;76.55
8294;BME280;4185;41.506;24.938;2022-07-06T07:40:25;93469.03;;;20.92;76.20
8294;BME280;4185;41.506;24.938;2022-07-06T07:42:52;93475.69;;;20.97;76.16
8294;BME280;4185;41.506;24.938;2022-07-06T07:45:19;93472.41;;;20.98;75.66
8294;BME280;4185;41.506;24.938;2022-07-06T07:47:46;93456.19;;;21.02;76.10
8294;BME280;4185;41.506;24.938;2022-07-06T07:50:13;93461.31;;;21.06;75.82
8294;BME280;4185;41.506;24.938;2022-07-06T07:52:41;93472.38;;;21.06;75.53
8294;BME280;4185;41.506;24.938;2022-07-06T07:55:09;93472.94;;;21.04;76.22
8294;BME280;4185;41.506;24.938;2022-07-06T07:57:36;93468.16;;;21.05;76.56
8294;BME280;4185;41.506;24.938;2022-07-06T08:00:04;93468.72;;;21.03;76.97
8294;BME280;4185;41.506;24.938;2022-07-06T08:02:31;93478.13;;;21.00;77.49
8294;BME280;4185;41.506;24.938;2022-07-06T08:04:58;93473.84;;;20.99;77.32
8294;BME280;4185;41.506;24.938;2022-07-06T08:07:25;93477.19;;;20.98;76.92
8294;BME280;4185;41.506;24.938;2022-07-06T08:09:53;93467.22;;;21.02;76.75
8294;BME280;4185;41.506;24.938;2022-07-06T08:12:20;93461.69;;;21.02;76.91
8294;BME280;4185;41.506;24.938;2022-07-06T08:14:47;93465.38;;;21.20;77.04
8294;BME280;4185;41.506;24.938;2022-07-06T08:17:14;93470.50;;;21.38;76.38
8294;BME280;4185;41.506;24.938;2022-07-06T08:19:41;93470.63;;;21.55;76.13
8294;BME280;4185;41.506;24.938;2022-07-06T08:22:08;93466.72;;;21.66;75.17
8294;BME280;4185;41.506;24.938;2022-07-06T08:24:35;93469.84;;;21.77;73.62
8294;BME280;4185;41.506;24.938;2022-07-06T08:27:04;93465.72;;;21.94;73.16
8294;BME280;4185;41.506;24.938;2022-07-06T08:29:31;93470.72;;;22.27;72.63
8294;BME280;4185;41.506;24.938;2022-07-06T08:31:58;93464.66;;;22.53;72.41
8294;BME280;4185;41.506;24.938;2022-07-06T08:34:25;93456.13;;;22.83;68.97
8294;BME280;4185;41.506;24.938;2022-07-06T08:36:54;93456.63;;;23.14;68.21
8294;BME280;4185;41.506;24.938;2022-07-06T08:39:21;93455.03;;;23.28;67.20
8294;BME280;4185;41.506;24.938;2022-07-06T08:41:49;93456.50;;;23.63;64.61
8294;BME280;4185;41.506;24.938;2022-07-06T08:44:18;93450.78;;;23.78;64.57
8294;BME280;4185;41.506;24.938;2022-07-06T08:46:46;93456.72;;;23.92;63.15
8294;BME280;4185;41.506;24.938;2022-07-06T08:49:17;93453.94;;;23.92;60.94
8294;BME280;4185;41.506;24.938;2022-07-06T08:51:45;93452.56;;;23.83;58.72
8294;BME280;4185;41.506;24.938;2022-07-06T08:54:12;93455.84;;;23.89;61.52
8294;BME280;4185;41.506;24.938;2022-07-06T08:56:40;93457.56;;;24.02;60.90
8294;BME280;4185;41.506;24.938;2022-07-06T08:59:07;93454.69;;;24.09;61.72
8294;BME280;4185;41.506;24.938;2022-07-06T09:01:38;93465.53;;;24.15;59.83
8294;BME280;4185;41.506;24.938;2022-07-06T09:04:06;93458.03;;;24.08;57.49
8294;BME280;4185;41.506;24.938;2022-07-06T09:06:34;93458.13;;;24.00;58.37
8294;BME280;4185;41.506;24.938;2022-07-06T09:09:05;93464.47;;;24.10;58.84
8294;BME280;4185;41.506;24.938;2022-07-06T09:11:32;93463.16;;;24.29;58.17
8294;BME280;4185;41.506;24.938;2022-07-06T09:14:00;93465.06;;;24.36;56.59
8294;BME280;4185;41.506;24.938;2022-07-06T09:16:29;93457.47;;;24.36;56.33
8294;BME280;4185;41.506;24.938;2022-07-06T09:18:57;93451.19;;;24.36;55.47
8294;BME280;4185;41.506;24.938;2022-07-06T09:21:26;93461.03;;;24.46;54.64
8294;BME280;4185;41.506;24.938;2022-07-06T09:23:56;93460.56;;;24.67;54.84
8294;BME280;4185;41.506;24.938;2022-07-06T09:26:24;93464.72;;;24.85;54.41
8294;BME280;4185;41.506;24.938;2022-07-06T09:28:51;93454.09;;;24.91;53.83
8294;BME280;4185;41.506;24.938;2022-07-06T09:31:20;93460.16;;;25.06;54.87
8294;BME280;4185;41.506;24.938;2022-07-06T09:33:54;93456.63;;;25.06;53.61
8294;BME280;4185;41.506;24.938;2022-07-06T09:36:38;93459.25;;;25.13;53.91
8294;BME280;4185;41.506;24.938;2022-07-06T09:39:20;93451.84;;;25.25;53.79
8294;BME280;4185;41.506;24.938;2022-07-06T09:41:48;93445.31;;;25.50;54.52
8294;BME280;4185;41.506;24.938;2022-07-06T09:44:21;93446.22;;;25.62;52.88
8294;BME280;4185;41.506;24.938;2022-07-06T09:46:48;93437.13;;;25.61;53.35
8294;BME280;4185;41.506;24.938;2022-07-06T09:49:19;93426.44;;;25.67;52.78
8294;BME280;4185;41.506;24.938;2022-07-06T09:51:49;93431.41;;;25.78;52.34
8294;BME280;4185;41.506;24.938;2022-07-06T09:54:16;93422.78;;;25.84;52.54
8294;BME280;4185;41.506;24.938;2022-07-06T09:56:45;93435.34;;;25.66;51.81
8294;BME280;4185;41.506;24.938;2022-07-06T09:59:17;93439.16;;;25.80;53.78
8294;BME280;4185;41.506;24.938;2022-07-06T10:01:45;93436.41;;;25.89;50.60
8294;BME280;4185;41.506;24.938;2022-07-06T10:04:13;93438.88;;;25.95;51.55
8294;BME280;4185;41.506;24.938;2022-07-06T10:06:41;93430.81;;;26.08;49.38
8294;BME280;4185;41.506;24.938;2022-07-06T10:09:10;93425.53;;;26.12;50.35
8294;BME280;4185;41.506;24.938;2022-07-06T10:11:38;93424.06;;;26.21;50.85
8294;BME280;4185;41.506;24.938;2022-07-06T10:14:06;93425.91;;;26.37;49.67
8294;BME280;4185;41.506;24.938;2022-07-06T10:16:35;93429.25;;;26.45;49.07
8294;BME280;4185;41.506;24.938;2022-07-06T10:19:05;93438.09;;;26.32;48.90
8294;BME280;4185;41.506;24.938;2022-07-06T10:21:35;93431.53;;;26.28;50.12
8294;BME280;4185;41.506;24.938;2022-07-06T10:24:04;93425.81;;;26.16;49.70
8294;BME280;4185;41.506;24.938;2022-07-06T10:26:34;93425.25;;;26.08;51.39
8294;BME280;4185;41.506;24.938;2022-07-06T10:29:01;93435.19;;;26.21;51.53
8294;BME280;4185;41.506;24.938;2022-07-06T10:31:30;93432.97;;;26.29;49.99
8294;BME280;4185;41.506;24.938;2022-07-06T10:34:00;93430.38;;;26.21;49.31
8294;BME280;4185;41.506;24.938;2022-07-06T10:36:29;93436.94;;;26.16;48.98
8294;BME280;4185;41.506;24.938;2022-07-06T10:38:57;93427.00;;;26.13;49.12
8294;BME280;4185;41.506;24.938;2022-07-06T10:41:45;93422.00;;;26.31;49.69
8294;BME280;4185;41.506;24.938;2022-07-06T10:44:15;93421.78;;;26.48;50.73
8294;BME280;4185;41.506;24.938;2022-07-06T10:46:49;93411.66;;;26.53;50.02
8294;BME280;4185;41.506;24.938;2022-07-06T10:49:17;93414.81;;;26.78;51.00
8294;BME280;4185;41.506;24.938;2022-07-06T10:51:43;93403.47;;;26.85;49.56
8294;BME280;4185;41.506;24.938;2022-07-06T10:54:10;93415.63;;;26.90;49.86
8294;BME280;4185;41.506;24.938;2022-07-06T10:56:39;93417.38;;;26.95;49.86
8294;BME280;4185;41.506;24.938;2022-07-06T10:59:11;93411.25;;;26.87;46.96
8294;BME280;4185;41.506;24.938;2022-07-06T11:01:38;93407.97;;;26.60;46.28
8294;BME280;4185;41.506;24.938;2022-07-06T11:04:07;93402.53;;;26.62;46.37
8294;BME280;4185;41.506;24.938;2022-07-06T11:06:35;93405.59;;;26.75;45.69
8294;BME280;4185;41.506;24.938;2022-07-06T11:09:04;93397.53;;;26.70;46.80
8294;BME280;4185;41.506;24.938;2022-07-06T11:11:39;93392.66;;;26.80;48.20
8294;BME280;4185;41.506;24.938;2022-07-06T11:14:10;93399.41;;;26.77;47.11
8294;BME280;4185;41.506;24.938;2022-07-06T11:16:38;93402.75;;;26.85;47.21
8294;BME280;4185;41.506;24.938;2022-07-06T11:19:08;93378.44;;;26.76;45.66
8294;BME280;4185;41.506;24.938;2022-07-06T11:21:41;93398.00;;;26.97;46.11
8294;BME280;4185;41.506;24.938;2022-07-06T11:24:12;93391.63;;;27.06;45.72
8294;BME280;4185;41.506;24.938;2022-07-06T11:26:39;93387.09;;;27.31;45.78
8294;BME280;4185;41.506;24.938;2022-07-06T11:29:10;93380.75;;;27.52;45.15
8294;BME280;4185;41.506;24.938;2022-07-06T11:31:38;93378.88;;;27.66;45.73
8294;BME280;4185;41.506;24.938;2022-07-06T11:34:07;93383.41;;;27.71;44.58
8294;BME280;4185;41.506;24.938;2022-07-06T11:36:34;93386.13;;;27.59;43.76
8294;BME280;4185;41.506;24.938;2022-07-06T11:39:01;93392.31;;;27.58;43.48
8294;BME280;4185;41.506;24.938;2022-07-06T11:41:28;93385.34;;;27.69;42.99
8294;BME280;4185;41.506;24.938;2022-07-06T11:43:55;93383.53;;;27.73;42.78
8294;BME280;4185;41.506;24.938;2022-07-06T11:46:25;93373.31;;;27.45;41.60
8294;BME280;4185;41.506;24.938;2022-07-06T11:48:53;93379.44;;;27.32;43.25
8294;BME280;4185;41.506;24.938;2022-07-06T11:51:22;93381.63;;;27.33;43.93
8294;BME280;4185;41.506;24.938;2022-07-06T11:53:50;93378.25;;;27.35;43.52
8294;BME280;4185;41.506;24.938;2022-07-06T11:56:18;93388.63;;;27.13;41.38
8294;BME280;4185;41.506;24.938;2022-07-06T11:58:49;93391.00;;;26.86;42.52
8294;BME280;4185;41.506;24.938;2022-07-06T12:01:16;93383.84;;;26.83;43.75
8294;BME280;4185;41.506;24.938;2022-07-06T12:03:45;93387.28;;;26.93;43.65
8294;BME280;4185;41.506;24.938;2022-07-06T12:06:15;93392.69;;;27.01;42.94
8294;BME280;4185;41.506;24.938;2022-07-06T12:08:43;93383.38;;;27.08;43.04
8294;BME280;4185;41.506;24.938;2022-07-06T12:11:11;93373.72;;;27.30;44.38
8294;BME280;4185;41.506;24.938;2022-07-06T12:13:42;93381.56;;;27.43;43.64
8294;BME280;4185;41.506;24.938;2022-07-06T12:16:10;93368.16;;;27.51;43.33
8294;BME280;4185;41.506;24.938;2022-07-06T12:18:38;93356.44;;;27.64;42.83
8294;BME280;4185;41.506;24.938;2022-07-06T12:21:08;93365.81;;;27.69;42.74
8294;BME280;4185;41.506;24.938;2022-07-06T12:23:40;93368.47;;;27.99;44.03
8294;BME280;4185;41.506;24.938;2022-07-06T12:26:07;93366.38;;;28.44;42.30
8294;BME280;4185;41.506;24.938;2022-07-06T12:28:35;93376.59;;;28.39;42.35
8294;BME280;4185;41.506;24.938;2022-07-06T12:31:02;93369.03;;;28.42;41.05
8294;BME280;4185;41.506;24.938;2022-07-06T12:33:29;93366.84;;;28.29;40.68
8294;BME280;4185;41.506;24.938;2022-07-06T12:35:56;93362.19;;;28.10;41.71
8294;BME280;4185;41.506;24.938;2022-07-06T12:38:25;93350.69;;;27.83;42.14
8294;BME280;4185;41.506;24.938;2022-07-06T12:40:52;93354.41;;;27.76;42.62
8294;BME280;4185;41.506;24.938;2022-07-06T12:43:35;93348.47;;;27.70;42.42
8294;BME280;4185;41.506;24.938;2022-07-06T12:46:23;93350.09;;;27.31;43.75
8294;BME280;4185;41.506;24.938;2022-07-06T12:48:52;93337.06;;;27.24;44.29
8294;BME280;4185;41.506;24.938;2022-07-06T12:51:19;93344.09;;;27.46;44.05
8294;BME280;4185;41.506;24.938;2022-07-06T12:53:48;93343.31;;;27.55;42.55
8294;BME280;4185;41.506;24.938;2022-07-06T12:56:15;93350.75;;;27.41;42.32
8294;BME280;4185;41.506;24.938;2022-07-06T12:58:57;93331.59;;;27.47;41.70
8294;BME280;4185;41.506;24.938;2022-07-06T13:01:25;93328.38;;;27.62;42.24
8294;BME280;4185;41.506;24.938;2022-07-06T13:03:55;93328.81;;;27.80;41.95
8294;BME280;4185;41.506;24.938;2022-07-06T13:06:33;93330.59;;;27.96;41.46
8294;BME280;4185;41.506;24.938;2022-07-06T13:09:01;93326.72;;;28.01;41.54
8294;BME280;4185;41.506;24.938;2022-07-06T13:11:28;93317.50;;;28.10;41.65
8294;BME280;4185;41.506;24.938;2022-07-06T13:13:56;93328.94;;;28.14;41.42